sensor_id;sensor_type;location;lat;lon;timestamp;pressure;altitude;pressure_sealevel;temperature;humidity
36598;BME280;22607;49.550;11.940;2023-04-24T00:01:54;95856.97;;;11.33;100.00
36598;BME280;22607;49.550;11.940;2023-04-24T00:04:21;95862.22;;;11.26;100.00
36598;BME280;22607;49.550;11.940;2023-04-24T00:06:48;95851.47;;;11.14;100.00
36598;BME280;22607;49.550;11.940;2023-04-24T00:09:20;95861.56;;;11.17;100.00
36598;BME280;22607;49.550;11.940;2023-04-24T00:11:46;95862.41;;;11.18;100.00
36598;BME280;22607;49.550;11.940;2023-04-24T00:14:12;95856.72;;;11.00;100.00
36598;BME280;22607;49.550;11.940;2023-04-24T00:16:39;95862.19;;;11.19;100.00
36598;BME280;22607;49.550;11.940;2023-04-24T00:19:06;95851.69;;;11.19;100.00
36598;BME280;22607;49.550;11.940;2023-04-24T00:21:32;95846.41;;;10.99;100.00
36598;BME280;22607;49.550;11.940;2023-04-24T00:23:59;95850.03;;;10.98;100.00
36598;BME280;22607;49.550;11.940;2023-04-24T00:26:26;95846.41;;;11.06;100.00
36598;BME280;22607;49.550;11.940;2023-04-24T00:28:52;95846.22;;;11.07;100.00
36598;BME280;22607;49.550;11.940;2023-04-24T00:31:19;95837.72;;;11.12;100.00
36598;BME280;22607;49.550;11.940;2023-04-24T00:33:45;95832.63;;;10.97;100.00
36598;BME280;22607;49.550;11.940;2023-04-24T00:36:12;95831.63;;;10.91;100.00
36598;BME280;22607;49.550;11.940;2023-04-24T00:38:38;95839.06;;;10.87;100.00
36598;BME280;22607;49.550;11.940;2023-04-24T00:41:05;95838.88;;;10.89;100.00
36598;BME280;22607;49.550;11.940;2023-04-24T00:43:33;95836.91;;;10.98;100.00
36598;BME280;22607;49.550;11.940;2023-04-24T00:45:59;95836.25;;;10.89;100.00
36598;BME280;22607;49.550;11.940;2023-04-24T00:48:28;95839.72;;;10.89;100.00
36598;BME280;22607;49.550;11.940;2023-04-24T00:50:54;95836.47;;;10.94;100.00
36598;BME280;22607;49.550;11.940;2023-04-24T00:53:21;95843.94;;;10.84;100.00
36598;BME280;22607;49.550;11.940;2023-04-24T00:55:49;95839.06;;;10.67;100.00
36598;BME280;22607;49.550;11.940;2023-04-24T00:58:16;95829.59;;;10.86;100.00
36598;BME280;22607;49.550;11.940;2023-04-24T01:00:42;95839.50;;;10.91;100.00
36598;BME280;22607;49.550;11.940;2023-04-24T01:03:10;95848.19;;;10.92;100.00
36598;BME280;22607;49.550;11.940;2023-04-24T01:05:37;95846.16;;;10.87;100.00
36598;BME280;22607;49.550;11.940;2023-04-24T01:08:03;95833.03;;;10.87;100.00
36598;BME280;22607;49.550;11.940;2023-04-24T01:10:31;95833.63;;;10.89;100.00
36598;BME280;22607;49.550;11.940;2023-04-24T01:12:59;95840.69;;;10.82;100.00
36598;BME280;22607;49.550;11.940;2023-04-24T01:15:26;95836.06;;;10.84;100.00
36598;BME280;22607;49.550;11.940;2023-04-24T01:17:52;95834.25;;;10.91;100.00
36598;BME280;22607;49.550;11.940;2023-04-24T01:20:19;95832.44;;;10.98;100.00
36598;BME280;22607;49.550;11.940;2023-04-24T01:22:47;95833.44;;;10.97;100.00
36598;BME280;22607;49.550;11.940;2023-04-24T01:25:13;95831.22;;;11.01;100.00
36598;BME280;22607;49.550;11.940;2023-04-24T01:27:40;95833.25;;;10.92;100.00
36598;BME280;22607;49.550;11.940;2023-04-24T01:30:07;95838.84;;;10.75;100.00
36598;BME280;22607;49.550;11.940;2023-04-24T01:32:33;95830.94;;;10.69;100.00
36598;BME280;22607;49.550;11.940;2023-04-24T01:35:01;95829.09;;;10.56;100.00
36598;BME280;22607;49.550;11.940;2023-04-24T01:37:27;95826.31;;;10.64;100.00
36598;BME280;22607;49.550;11.940;2023-04-24T01:39:54;95821.47;;;10.74;100.00
36598;BME280;22607;49.550;11.940;2023-04-24T01:42:21;95824.31;;;10.80;100.00
36598;BME280;22607;49.550;11.940;2023-04-24T01:44:47;95827.13;;;10.78;100.00
36598;BME280;22607;49.550;11.940;2023-04-24T01:47:14;95824.97;;;10.88;100.00
36598;BME280;22607;49.550;11.940;2023-04-24T01:49:40;95814.66;;;10.87;100.00
36598;BME280;22607;49.550;11.940;2023-04-24T01:52:07;95813.81;;;10.80;100.00
36598;BME280;22607;49.550;11.940;2023-04-24T01:54:35;95813.44;;;10.83;100.00
36598;BME280;22607;49.550;11.940;2023-04-24T01:57:01;95821.09;;;10.77;100.00
36598;BME280;22607;49.550;11.940;2023-04-24T01:59:28;95814.75;;;10.58;100.00
36598;BME280;22607;49.550;11.940;2023-04-24T02:01:56;95818.97;;;10.46;100.00
36598;BME280;22607;49.550;11.940;2023-04-24T02:04:22;95816.50;;;10.37;100.00
36598;BME280;22607;49.550;11.940;2023-04-24T02:06:49;95825.38;;;10.43;100.00
36598;BME280;22607;49.550;11.940;2023-04-24T02:09:15;95824.44;;;10.44;100.00
36598;BME280;22607;49.550;11.940;2023-04-24T02:11:42;95821.13;;;10.42;100.00
36598;BME280;22607;49.550;11.940;2023-04-24T02:14:08;95827.66;;;10.46;100.00
36598;BME280;22607;49.550;11.940;2023-04-24T02:16:35;95827.50;;;10.55;100.00
36598;BME280;22607;49.550;11.940;2023-04-24T02:19:02;95825.06;;;10.60;100.00
36598;BME280;22607;49.550;11.940;2023-04-24T02:21:29;95821.66;;;10.66;100.00
36598;BME280;22607;49.550;11.940;2023-04-24T02:23:56;95814.81;;;10.72;100.00
36598;BME280;22607;49.550;11.940;2023-04-24T02:26:23;95819.84;;;10.67;100.00
36598;BME280;22607;49.550;11.940;2023-04-24T02:28:49;95820.63;;;10.54;100.00
36598;BME280;22607;49.550;11.940;2023-04-24T02:31:16;95824.47;;;10.58;100.00
36598;BME280;22607;49.550;11.940;2023-04-24T02:33:42;95816.97;;;10.48;100.00
36598;BME280;22607;49.550;11.940;2023-04-24T02:36:09;95808.09;;;10.56;100.00
36598;BME280;22607;49.550;11.940;2023-04-24T02:38:36;95807.88;;;10.50;100.00
36598;BME280;22607;49.550;11.940;2023-04-24T02:41:03;95808.00;;;10.42;100.00
36598;BME280;22607;49.550;11.940;2023-04-24T02:43:33;95801.88;;;10.21;100.00
36598;BME280;22607;49.550;11.940;2023-04-24T02:45:59;95812.34;;;10.15;100.00
36598;BME280;22607;49.550;11.940;2023-04-24T02:48:26;95817.41;;;10.16;100.00
36598;BME280;22607;49.550;11.940;2023-04-24T02:50:53;95815.41;;;10.25;100.00
36598;BME280;22607;49.550;11.940;2023-04-24T02:53:19;95808.72;;;10.16;100.00
36598;BME280;22607;49.550;11.940;2023-04-24T02:55:48;95802.31;;;10.25;100.00
36598;BME280;22607;49.550;11.940;2023-04-24T02:58:14;95812.81;;;10.32;100.00
36598;BME280;22607;49.550;11.940;2023-04-24T03:00:41;95805.38;;;10.35;100.00
36598;BME280;22607;49.550;11.940;2023-04-24T03:03:09;95800.72;;;10.31;100.00
36598;BME280;22607;49.550;11.940;2023-04-24T03:05:36;95791.41;;;10.21;100.00
36598;BME280;22607;49.550;11.940;2023-04-24T03:08:02;95795.47;;;10.31;100.00
36598;BME280;22607;49.550;11.940;2023-04-24T03:10:31;95791.84;;;10.32;100.00
36598;BME280;22607;49.550;11.940;2023-04-24T03:12:58;95787.34;;;10.19;100.00
36598;BME280;22607;49.550;11.940;2023-04-24T03:15:24;95782.28;;;10.17;100.00
36598;BME280;22607;49.550;11.940;2023-04-24T03:17:51;95785.13;;;10.22;100.00
36598;BME280;22607;49.550;11.940;2023-04-24T03:20:20;95779.66;;;10.17;100.00
36598;BME280;22607;49.550;11.940;2023-04-24T03:22:47;95779.00;;;10.08;100.00
36598;BME280;22607;49.550;11.940;2023-04-24T03:25:14;95779.22;;;10.07;100.00
36598;BME280;22607;49.550;11.940;2023-04-24T03:27:40;95772.13;;;10.01;100.00
36598;BME280;22607;49.550;11.940;2023-04-24T03:30:07;95782.41;;;10.02;100.00
36598;BME280;22607;49.550;11.940;2023-04-24T03:32:34;95775.59;;;10.08;100.00
36598;BME280;22607;49.550;11.940;2023-04-24T03:35:01;95777.81;;;10.04;100.00
36598;BME280;22607;49.550;11.940;2023-04-24T03:37:27;95781.56;;;9.88;100.00
36598;BME280;22607;49.550;11.940;2023-04-24T03:39:54;95778.56;;;9.98;100.00
36598;BME280;22607;49.550;11.940;2023-04-24T03:42:20;95772.16;;;10.07;100.00
36598;BME280;22607;49.550;11.940;2023-04-24T03:44:46;95783.28;;;10.09;100.00
36598;BME280;22607;49.550;11.940;2023-04-24T03:47:13;95788.06;;;10.06;100.00
36598;BME280;22607;49.550;11.940;2023-04-24T03:49:39;95782.28;;;10.17;100.00
36598;BME280;22607;49.550;11.940;2023-04-24T03:52:06;95785.13;;;10.22;100.00
36598;BME280;22607;49.550;11.940;2023-04-24T03:54:32;95778.88;;;10.23;100.00
36598;BME280;22607;49.550;11.940;2023-04-24T03:56:59;95787.63;;;9.95;100.00
36598;BME280;22607;49.550;11.940;2023-04-24T03:59:26;95798.22;;;9.80;100.00
36598;BME280;22607;49.550;11.940;2023-04-24T04:01:52;95804.94;;;9.83;100.00
36598;BME280;22607;49.550;11.940;2023-04-24T04:04:19;95796.19;;;9.76;100.00
36598;BME280;22607;49.550;11.940;2023-04-24T04:06:46;95802.25;;;9.76;100.00
36598;BME280;22607;49.550;11.940;2023-04-24T04:09:12;95802.97;;;9.63;100.00
36598;BME280;22607;49.550;11.940;2023-04-24T04:11:39;95801.22;;;9.70;100.00
36598;BME280;22607;49.550;11.940;2023-04-24T04:14:06;95802.97;;;9.63;100.00
36598;BME280;22607;49.550;11.940;2023-04-24T04:16:32;95793.91;;;9.66;100.00
36598;BME280;22607;49.550;11.940;2023-04-24T04:18:58;95808.53;;;9.82;100.00
36598;BME280;22607;49.550;11.940;2023-04-24T04:21:25;95801.28;;;9.84;100.00
36598;BME280;22607;49.550;11.940;2023-04-24T04:23:52;95795.69;;;9.94;100.00
36598;BME280;22607;49.550;11.940;2023-04-24T04:26:19;95803.00;;;9.98;100.00
36598;BME280;22607;49.550;11.940;2023-04-24T04:28:47;95807.28;;;10.13;100.00
36598;BME280;22607;49.550;11.940;2023-04-24T04:31:15;95799.66;;;10.18;100.00
36598;BME280;22607;49.550;11.940;2023-04-24T04:33:41;95800.28;;;10.20;100.00
36598;BME280;22607;49.550;11.940;2023-04-24T04:36:08;95809.53;;;10.16;100.00
36598;BME280;22607;49.550;11.940;2023-04-24T04:38:36;95801.81;;;10.08;100.00
36598;BME280;22607;49.550;11.940;2023-04-24T04:41:03;95801.66;;;10.16;100.00
36598;BME280;22607;49.550;11.940;2023-04-24T04:43:29;95796.19;;;10.18;100.00
36598;BME280;22607;49.550;11.940;2023-04-24T04:45:57;95799.53;;;9.98;100.00
36598;BME280;22607;49.550;11.940;2023-04-24T04:48:24;95804.44;;;10.08;100.00
36598;BME280;22607;49.550;11.940;2023-04-24T04:50:50;95806.63;;;9.97;100.00
36598;BME280;22607;49.550;11.940;2023-04-24T04:53:17;95801.59;;;10.03;100.00
36598;BME280;22607;49.550;11.940;2023-04-24T04:55:43;95802.47;;;10.17;100.00
36598;BME280;22607;49.550;11.940;2023-04-24T04:58:10;95794.97;;;10.07;100.00
36598;BME280;22607;49.550;11.940;2023-04-24T05:00:36;95797.19;;;10.10;100.00
36598;BME280;22607;49.550;11.940;2023-04-24T05:03:03;95801.19;;;10.06;100.00
36598;BME280;22607;49.550;11.940;2023-04-24T05:05:46;95804.44;;;10.08;100.00
36598;BME280;22607;49.550;11.940;2023-04-24T05:08:12;95803.25;;;10.10;100.00
36598;BME280;22607;49.550;11.940;2023-04-24T05:10:52;95808.91;;;10.14;100.00
36598;BME280;22607;49.550;11.940;2023-04-24T05:13:19;95811.16;;;10.17;100.00
36598;BME280;22607;49.550;11.940;2023-04-24T05:15:57;95817.44;;;10.23;100.00
36598;BME280;22607;49.550;11.940;2023-04-24T05:18:23;95821.28;;;10.27;100.00
36598;BME280;22607;49.550;11.940;2023-04-24T05:20:50;95822.47;;;10.24;100.00
36598;BME280;22607;49.550;11.940;2023-04-24T05:23:16;95816.47;;;10.31;100.00
36598;BME280;22607;49.550;11.940;2023-04-24T05:25:42;95812.22;;;10.30;100.00
36598;BME280;22607;49.550;11.940;2023-04-24T05:28:09;95820.53;;;10.40;100.00
36598;BME280;22607;49.550;11.940;2023-04-24T05:30:36;95830.13;;;10.19;100.00
36598;BME280;22607;49.550;11.940;2023-04-24T05:33:02;95837.47;;;10.31;100.00
36598;BME280;22607;49.550;11.940;2023-04-24T05:35:29;95831.47;;;10.44;100.00
36598;BME280;22607;49.550;11.940;2023-04-24T05:37:56;95824.19;;;10.39;100.00
36598;BME280;22607;49.550;11.940;2023-04-24T05:40:23;95824.66;;;10.49;100.00
36598;BME280;22607;49.550;11.940;2023-04-24T05:42:49;95829.47;;;10.53;100.00
36598;BME280;22607;49.550;11.940;2023-04-24T05:45:16;95832.09;;;10.53;100.00
36598;BME280;22607;49.550;11.940;2023-04-24T05:47:43;95832.13;;;10.59;100.00
36598;BME280;22607;49.550;11.940;2023-04-24T05:50:13;95822.50;;;10.73;100.00
36598;BME280;22607;49.550;11.940;2023-04-24T05:52:39;95825.56;;;10.90;100.00
36598;BME280;22607;49.550;11.940;2023-04-24T05:55:06;95826.00;;;11.08;100.00
36598;BME280;22607;49.550;11.940;2023-04-24T05:57:33;95821.75;;;11.07;100.00
36598;BME280;22607;49.550;11.940;2023-04-24T06:00:00;95837.13;;;11.16;100.00
36598;BME280;22607;49.550;11.940;2023-04-24T06:02:26;95832.09;;;11.35;100.00
36598;BME280;22607;49.550;11.940;2023-04-24T06:04:54;95834.94;;;11.40;100.00
36598;BME280;22607;49.550;11.940;2023-04-24T06:07:21;95832.50;;;11.52;100.00
36598;BME280;22607;49.550;11.940;2023-04-24T06:09:48;95837.75;;;11.66;100.00
36598;BME280;22607;49.550;11.940;2023-04-24T06:12:14;95843.22;;;11.71;100.00
36598;BME280;22607;49.550;11.940;2023-04-24T06:17:10;95831.63;;;11.99;100.00
36598;BME280;22607;49.550;11.940;2023-04-24T06:19:38;95837.31;;;11.82;100.00
36598;BME280;22607;49.550;11.940;2023-04-24T06:22:04;95841.78;;;11.62;100.00
36598;BME280;22607;49.550;11.940;2023-04-24T06:24:31;95840.97;;;11.75;100.00
36598;BME280;22607;49.550;11.940;2023-04-24T06:26:59;95840.75;;;11.97;100.00
36598;BME280;22607;49.550;11.940;2023-04-24T06:29:27;95838.34;;;11.81;100.00
36598;BME280;22607;49.550;11.940;2023-04-24T06:31:53;95836.91;;;11.92;100.00
36598;BME280;22607;49.550;11.940;2023-04-24T06:34:20;95833.09;;;11.54;100.00
36598;BME280;22607;49.550;11.940;2023-04-24T06:36:46;95831.66;;;11.86;100.00
36598;BME280;22607;49.550;11.940;2023-04-24T06:39:21;95838.88;;;12.04;100.00
36598;BME280;22607;49.550;11.940;2023-04-24T06:41:47;95838.09;;;12.03;100.00
36598;BME280;22607;49.550;11.940;2023-04-24T06:44:13;95834.44;;;12.25;100.00
36598;BME280;22607;49.550;11.940;2023-04-24T06:46:41;95839.00;;;12.43;100.00
36598;BME280;22607;49.550;11.940;2023-04-24T06:49:07;95837.31;;;12.10;100.00
36598;BME280;22607;49.550;11.940;2023-04-24T06:51:34;95844.81;;;12.06;100.00
36598;BME280;22607;49.550;11.940;2023-04-24T06:54:00;95833.97;;;12.34;100.00
36598;BME280;22607;49.550;11.940;2023-04-24T06:56:28;95830.56;;;12.27;100.00
36598;BME280;22607;49.550;11.940;2023-04-24T06:58:55;95827.97;;;12.73;100.00
36598;BME280;22607;49.550;11.940;2023-04-24T07:01:22;95833.06;;;12.68;100.00
36598;BME280;22607;49.550;11.940;2023-04-24T07:03:48;95832.00;;;12.76;100.00
36598;BME280;22607;49.550;11.940;2023-04-24T07:06:15;95840.47;;;13.49;100.00
36598;BME280;22607;49.550;11.940;2023-04-24T07:08:44;95832.03;;;13.84;100.00
36598;BME280;22607;49.550;11.940;2023-04-24T07:11:11;95830.34;;;14.83;100.00
36598;BME280;22607;49.550;11.940;2023-04-24T07:13:37;95833.25;;;14.44;100.00
36598;BME280;22607;49.550;11.940;2023-04-24T07:16:08;95825.84;;;13.97;100.00
36598;BME280;22607;49.550;11.940;2023-04-24T07:18:35;95836.97;;;13.55;100.00
36598;BME280;22607;49.550;11.940;2023-04-24T07:21:02;95832.94;;;13.52;100.00
36598;BME280;22607;49.550;11.940;2023-04-24T07:23:29;95839.31;;;13.38;100.00
36598;BME280;22607;49.550;11.940;2023-04-24T07:25:56;95837.63;;;13.50;100.00
36598;BME280;22607;49.550;11.940;2023-04-24T07:28:23;95825.84;;;13.97;100.00
36598;BME280;22607;49.550;11.940;2023-04-24T07:30:50;95826.88;;;13.96;100.00
36598;BME280;22607;49.550;11.940;2023-04-24T07:33:20;95831.03;;;13.85;100.00
36598;BME280;22607;49.550;11.940;2023-04-24T07:35:47;95828.69;;;13.51;100.00
36598;BME280;22607;49.550;11.940;2023-04-24T07:38:14;95826.22;;;13.24;100.00
36598;BME280;22607;49.550;11.940;2023-04-24T07:40:40;95829.59;;;13.06;100.00
36598;BME280;22607;49.550;11.940;2023-04-24T07:43:08;95828.97;;;13.04;100.00
36598;BME280;22607;49.550;11.940;2023-04-24T07:45:34;95831.78;;;13.09;100.00
36598;BME280;22607;49.550;11.940;2023-04-24T07:48:03;95839.00;;;12.89;100.00
36598;BME280;22607;49.550;11.940;2023-04-24T07:50:30;95837.88;;;12.71;100.00
36598;BME280;22607;49.550;11.940;2023-04-24T07:52:57;95848.47;;;12.57;100.00
36598;BME280;22607;49.550;11.940;2023-04-24T07:57:57;95852.97;;;12.57;100.00
36598;BME280;22607;49.550;11.940;2023-04-24T08:00:24;95874.88;;;12.37;100.00
36598;BME280;22607;49.550;11.940;2023-04-24T08:02:51;95872.00;;;12.52;100.00
36598;BME280;22607;49.550;11.940;2023-04-24T08:05:18;95873.69;;;12.85;100.00
36598;BME280;22607;49.550;11.940;2023-04-24T08:07:45;95872.16;;;13.10;100.00
36598;BME280;22607;49.550;11.940;2023-04-24T08:10:12;95883.81;;;13.28;100.00
36598;BME280;22607;49.550;11.940;2023-04-24T08:12:39;95879.31;;;13.28;97.56
36598;BME280;22607;49.550;11.940;2023-04-24T08:15:06;95881.94;;;13.67;95.75
36598;BME280;22607;49.550;11.940;2023-04-24T08:17:33;95886.94;;;13.50;88.25
36598;BME280;22607;49.550;11.940;2023-04-24T08:20:01;95888.91;;;13.87;86.06
36598;BME280;22607;49.550;11.940;2023-04-24T08:22:28;95890.03;;;13.91;81.77
36598;BME280;22607;49.550;11.940;2023-04-24T08:24:56;95888.50;;;14.65;80.71
36598;BME280;22607;49.550;11.940;2023-04-24T08:27:23;95881.19;;;14.86;73.12
36598;BME280;22607;49.550;11.940;2023-04-24T08:29:52;95882.84;;;14.24;69.88
36598;BME280;22607;49.550;11.940;2023-04-24T08:32:19;95880.00;;;14.63;74.06
36598;BME280;22607;49.550;11.940;2023-04-24T08:34:45;95882.13;;;14.54;70.41
36598;BME280;22607;49.550;11.940;2023-04-24T08:37:14;95883.09;;;15.09;66.04
36598;BME280;22607;49.550;11.940;2023-04-24T08:39:41;95876.03;;;15.88;64.74
36598;BME280;22607;49.550;11.940;2023-04-24T08:42:08;95868.66;;;15.90;64.68
36598;BME280;22607;49.550;11.940;2023-04-24T08:44:35;95869.84;;;16.18;63.27
36598;BME280;22607;49.550;11.940;2023-04-24T08:47:02;95873.59;;;16.58;62.48
36598;BME280;22607;49.550;11.940;2023-04-24T08:49:28;95869.91;;;16.47;59.48
36598;BME280;22607;49.550;11.940;2023-04-24T08:51:55;95869.69;;;15.89;59.15
36598;BME280;22607;49.550;11.940;2023-04-24T08:54:21;95874.31;;;15.27;60.08
36598;BME280;22607;49.550;11.940;2023-04-24T08:56:48;95878.41;;;15.11;62.12
36598;BME280;22607;49.550;11.940;2023-04-24T08:59:15;95884.22;;;15.01;61.23
36598;BME280;22607;49.550;11.940;2023-04-24T09:01:41;95888.13;;;14.99;61.92
36598;BME280;22607;49.550;11.940;2023-04-24T09:04:09;95892.97;;;15.02;60.77
36598;BME280;22607;49.550;11.940;2023-04-24T09:06:37;95893.25;;;15.12;61.36
36598;BME280;22607;49.550;11.940;2023-04-24T09:09:04;95905.16;;;14.65;59.92
36598;BME280;22607;49.550;11.940;2023-04-24T09:11:31;95904.22;;;14.97;59.13
36598;BME280;22607;49.550;11.940;2023-04-24T09:14:01;95900.97;;;15.56;60.11
36598;BME280;22607;49.550;11.940;2023-04-24T09:16:28;95906.22;;;15.44;58.17
36598;BME280;22607;49.550;11.940;2023-04-24T09:18:56;95892.75;;;16.24;58.05
36598;BME280;22607;49.550;11.940;2023-04-24T09:21:22;95916.75;;;15.63;58.50
36598;BME280;22607;49.550;11.940;2023-04-24T09:23:59;95926.34;;;15.45;58.90
36598;BME280;22607;49.550;11.940;2023-04-24T09:26:28;95916.25;;;15.66;58.87
36598;BME280;22607;49.550;11.940;2023-04-24T09:28:55;95916.84;;;15.68;58.90
36598;BME280;22607;49.550;11.940;2023-04-24T09:31:21;95921.84;;;14.85;59.16
36598;BME280;22607;49.550;11.940;2023-04-24T09:33:55;95916.53;;;15.03;60.44
36598;BME280;22607;49.550;11.940;2023-04-24T09:38:57;95895.94;;;15.91;57.75
36598;BME280;22607;49.550;11.940;2023-04-24T09:41:23;95910.50;;;15.57;57.33
36598;BME280;22607;49.550;11.940;2023-04-24T09:43:50;95918.50;;;15.08;56.40
36598;BME280;22607;49.550;11.940;2023-04-24T09:46:16;95920.47;;;14.19;60.21
36598;BME280;22607;49.550;11.940;2023-04-24T09:48:44;95919.75;;;14.30;59.38
36598;BME280;22607;49.550;11.940;2023-04-24T09:51:11;95914.97;;;14.21;60.92
36598;BME280;22607;49.550;11.940;2023-04-24T09:53:38;95914.72;;;14.66;61.74
36598;BME280;22607;49.550;11.940;2023-04-24T09:56:08;95928.94;;;14.65;61.02
36598;BME280;22607;49.550;11.940;2023-04-24T09:58:36;95922.84;;;14.46;59.95
36598;BME280;22607;49.550;11.940;2023-04-24T10:01:02;95922.34;;;14.37;59.81
36598;BME280;22607;49.550;11.940;2023-04-24T10:03:29;95919.19;;;15.77;56.32
36598;BME280;22607;49.550;11.940;2023-04-24T10:06:00;95917.63;;;16.11;59.41
36598;BME280;22607;49.550;11.940;2023-04-24T10:08:26;95919.63;;;15.73;58.86
36598;BME280;22607;49.550;11.940;2023-04-24T10:10:59;95910.03;;;15.48;54.07
36598;BME280;22607;49.550;11.940;2023-04-24T10:13:25;95918.16;;;15.35;56.18
36598;BME280;22607;49.550;11.940;2023-04-24T10:15:52;95920.84;;;15.16;56.04
36598;BME280;22607;49.550;11.940;2023-04-24T10:18:19;95923.38;;;15.11;56.16
36598;BME280;22607;49.550;11.940;2023-04-24T10:20:53;95928.78;;;15.16;56.01
36598;BME280;22607;49.550;11.940;2023-04-24T10:23:21;95945.53;;;14.73;55.98
36598;BME280;22607;49.550;11.940;2023-04-24T10:25:48;95940.91;;;14.68;56.55
36598;BME280;22607;49.550;11.940;2023-04-24T10:28:16;95938.78;;;14.58;58.24
36598;BME280;22607;49.550;11.940;2023-04-24T10:30:44;95941.50;;;14.70;57.54
36598;BME280;22607;49.550;11.940;2023-04-24T10:33:12;95937.91;;;15.02;57.29
36598;BME280;22607;49.550;11.940;2023-04-24T10:35:44;95938.06;;;15.07;58.36
36598;BME280;22607;49.550;11.940;2023-04-24T10:38:12;95940.16;;;15.17;58.09
36598;BME280;22607;49.550;11.940;2023-04-24T10:40:39;95954.66;;;14.95;55.12
36598;BME280;22607;49.550;11.940;2023-04-24T10:43:06;95947.78;;;14.76;55.93
36598;BME280;22607;49.550;11.940;2023-04-24T10:45:37;95952.41;;;14.80;57.17
36598;BME280;22607;49.550;11.940;2023-04-24T10:48:04;95943.47;;;15.12;55.84
36598;BME280;22607;49.550;11.940;2023-04-24T10:53:13;95946.94;;;15.43;57.18
36598;BME280;22607;49.550;11.940;2023-04-24T10:55:43;95939.06;;;15.67;53.05
36598;BME280;22607;49.550;11.940;2023-04-24T10:58:10;95932.03;;;15.73;53.78
36598;BME280;22607;49.550;11.940;2023-04-24T11:00:40;95939.59;;;16.00;53.24
36598;BME280;22607;49.550;11.940;2023-04-24T11:03:12;95933.16;;;16.08;53.17
36598;BME280;22607;49.550;11.940;2023-04-24T11:05:52;95936.84;;;15.21;53.30
36598;BME280;22607;49.550;11.940;2023-04-24T11:08:26;95941.91;;;14.92;53.35
36598;BME280;22607;49.550;11.940;2023-04-24T11:11:01;95942.72;;;15.66;54.69
36598;BME280;22607;49.550;11.940;2023-04-24T11:16:15;95948.59;;;15.99;53.08
36598;BME280;22607;49.550;11.940;2023-04-24T11:18:42;95932.94;;;16.21;51.97
36598;BME280;22607;49.550;11.940;2023-04-24T11:21:12;95930.88;;;16.11;52.60
36598;BME280;22607;49.550;11.940;2023-04-24T11:23:39;95932.16;;;16.33;52.43
36598;BME280;22607;49.550;11.940;2023-04-24T11:26:10;95928.78;;;16.25;52.30
36598;BME280;22607;49.550;11.940;2023-04-24T11:28:37;95932.88;;;15.85;52.16
36598;BME280;22607;49.550;11.940;2023-04-24T11:33:55;95939.69;;;14.89;50.87
36598;BME280;22607;49.550;11.940;2023-04-24T11:36:22;95938.25;;;15.24;51.03
36598;BME280;22607;49.550;11.940;2023-04-24T11:38:48;95928.22;;;15.57;50.66
36598;BME280;22607;49.550;11.940;2023-04-24T11:41:15;95933.25;;;15.46;49.82
36598;BME280;22607;49.550;11.940;2023-04-24T11:43:41;95939.84;;;16.22;49.44
36598;BME280;22607;49.550;11.940;2023-04-24T11:46:09;95942.25;;;16.72;49.33
36598;BME280;22607;49.550;11.940;2023-04-24T11:48:37;95947.00;;;16.10;46.76
36598;BME280;22607;49.550;11.940;2023-04-24T11:51:06;95946.44;;;15.77;47.46
36598;BME280;22607;49.550;11.940;2023-04-24T11:53:33;95954.03;;;15.31;49.88
36598;BME280;22607;49.550;11.940;2023-04-24T11:56:02;95967.50;;;15.11;48.79
36598;BME280;22607;49.550;11.940;2023-04-24T11:58:34;95970.56;;;14.70;51.37
36598;BME280;22607;49.550;11.940;2023-04-24T12:01:00;95972.88;;;14.85;51.95
36598;BME280;22607;49.550;11.940;2023-04-24T12:03:27;95975.00;;;14.95;52.02
36598;BME280;22607;49.550;11.940;2023-04-24T12:06:07;95983.31;;;14.80;52.29
36598;BME280;22607;49.550;11.940;2023-04-24T12:08:36;95991.94;;;14.68;54.27
36598;BME280;22607;49.550;11.940;2023-04-24T12:11:04;95995.00;;;14.65;54.43
36598;BME280;22607;49.550;11.940;2023-04-24T12:13:33;96005.88;;;14.57;54.12
36598;BME280;22607;49.550;11.940;2023-04-24T12:16:01;96000.28;;;14.47;53.79
36598;BME280;22607;49.550;11.940;2023-04-24T12:18:28;96006.09;;;14.74;54.37
36598;BME280;22607;49.550;11.940;2023-04-24T12:20:54;95993.09;;;14.73;52.65
36598;BME280;22607;49.550;11.940;2023-04-24T12:23:35;95994.91;;;14.98;50.95
36598;BME280;22607;49.550;11.940;2023-04-24T12:26:05;95997.03;;;14.89;51.53
36598;BME280;22607;49.550;11.940;2023-04-24T12:28:36;95993.00;;;14.86;50.13
36598;BME280;22607;49.550;11.940;2023-04-24T12:31:03;95993.59;;;15.07;50.17
36598;BME280;22607;49.550;11.940;2023-04-24T12:33:34;95987.13;;;15.03;47.37
36598;BME280;22607;49.550;11.940;2023-04-24T12:36:01;95981.84;;;15.03;48.48
36598;BME280;22607;49.550;11.940;2023-04-24T12:38:28;95987.25;;;15.27;47.87
36598;BME280;22607;49.550;11.940;2023-04-24T12:41:09;95983.22;;;15.55;47.06
36598;BME280;22607;49.550;11.940;2023-04-24T12:43:36;95986.63;;;15.43;46.47
36598;BME280;22607;49.550;11.940;2023-04-24T12:46:04;95982.53;;;15.90;47.36
36598;BME280;22607;49.550;11.940;2023-04-24T12:48:31;95994.88;;;15.66;47.27
36598;BME280;22607;49.550;11.940;2023-04-24T12:50:58;95999.47;;;15.70;47.89
36598;BME280;22607;49.550;11.940;2023-04-24T12:53:27;95996.22;;;15.07;49.71
36598;BME280;22607;49.550;11.940;2023-04-24T12:55:56;96005.34;;;15.11;48.06
36598;BME280;22607;49.550;11.940;2023-04-24T12:58:22;96009.00;;;14.66;50.29
36598;BME280;22607;49.550;11.940;2023-04-24T13:00:49;96017.00;;;14.59;50.82
36598;BME280;22607;49.550;11.940;2023-04-24T13:03:15;96020.41;;;14.66;52.38